Fairbanks, AK

10:15 PM AKDT on July 01, 2015 (GMT -0800)
AKDOT | | Change Station
CLOSE
Current Station
Personal Weather Station
Location: Fairbanks, AK
Elevation: 513 ft
Nearby Weather Stations

Elev 513 ft 64.84 °N, 147.74 °W | Updated 52 minutes ago

Overcast
Overcast
59 °F
Feels Like 59 °F
N
6
Wind Variable Wind from SSE
Gusts 8.0 mph

Today
High -- | Low -- °F
--% Chance of Precip.
Yesterday
High -- | Low -- °F
Precip. -- in
3:10 AM 0:36 AM
Full, 100% visible
Pressure 29.96 in
Visibility 7.0 miles
Clouds Overcast 2600 ft
Dew Point 54 °F
Humidity 84%
Rainfall in
Snow Depth Not available.
UV 0 out of 12
Pollen Not available.
Air Quality Not available.
Flu Activity Not available.
METAR PAFB 020556Z AUTO 00000KT 7SM OVC026 15/12 A2995 RMK RAB18E28 SLP145 P0000 60000 T01500122 10167 20150 55005 $ VIA AUTODIAL

More Conditions Fewer Conditions

Pressure 29.96 in
Visibility 7.0 miles
Clouds Overcast 2600 ft
Dew Point 54 °F
Humidity 84%
Rainfall in
Snow Depth Not available.
UV 0 out of 12
Pollen Not available.
Air Quality Not available.
Flu Activity Not available.
METAR PAFB 020556Z AUTO 00000KT 7SM OVC026 15/12 A2995 RMK RAB18E28 SLP145 P0000 60000 T01500122 10167 20150 55005 $ VIA AUTODIAL

More Conditions Fewer Conditions

10-Day Weather Forecast

×

Almanac

Astronomy

Jul. 01, 2015 Rise Set
Actual Time
Civil Twilight
Nautical Twilight
Astronomical Twilight
Moon
Length of Visible Light
Length of Day
Tomorrow will be .
, % of the Moon is Illuminated

Today's Extremes

State Highs State Lows

Community

WunderPhotos

Upload Photos

1,834,422 photos uploaded!

WunderBlogs® & News

Nearby

Air Quality

  Air Quality AQ Index Pollutant
Not available.

Snow Depth

Station Depth Elevation

Earthquake Activity

City Distance Mag. Time & Date
Minimum magnitude displayed is 2.5.

Coastal Water Temperatures

Place Temperature

Stations

Nearby Weather Stations

Station Location Temp. Windchill Dew Point Humidity Wind Precip. Elev Updated Type